Home > Products > Valid Products > TAF

000
FTUS45 KTFX 010520
TAFGTF
TAF
KGTF 010520Z 0106/0206 VRB05KT P6SM SCT080
     FM011500 08007KT P6SM SCT120
     FM020100 VRB04KT P6SM SKC=



000
FTUS45 KTFX 010520
TAFHLN
TAF
KHLN 010520Z 0106/0206 VRB03KT P6SM SCT050 BKN070
     FM011100 03004KT P6SM SCT060 BKN090
     FM011800 07009KT P6SM SCT100
     FM020100 VRB04KT P6SM SKC=



000
FTUS45 KTFX 010520
TAFBZN
TAF
KBZN 010520Z 0106/0206 VRB03KT P6SM BKN060
     FM011100 VRB06KT P6SM SCT060 BKN090
     FM011800 07009KT P6SM SCT100
     FM020100 VRB04KT P6SM SKC=



000
FTUS45 KTFX 010520
TAFHVR
TAF
KHVR 010520Z 0106/0206 VRB04KT P6SM SCT080
     FM011500 13007KT P6SM SCT120
     FM020100 VRB04KT P6SM SKC=



000
FTUS45 KTFX 010520
TAFCTB
TAF
KCTB 010520Z 0106/0206 VRB05KT P6SM SCT080
     FM011500 16007KT P6SM SCT120
     FM020100 VRB04KT P6SM SKC=



000
FTUS45 KTFX 010520
TAFLWT
TAF
KLWT 010520Z 0106/0206 10007KT P6SM SCT050 BKN070
     FM011100 12006KT P6SM SCT070 BKN120
     FM011700 09005KT P6SM SCT120
     FM020100 13004KT P6SM SKC=



000
FTUS45 KTFX 302327
TAFGTF
TAF
KGTF 302327Z 0100/0124 08008KT P6SM SCT060 OVC090
     FM010300 VRB06KT P6SM SCT080
     FM011500 08007KT P6SM SKC=



000
FTUS45 KTFX 302327
TAFBZN
TAF
KBZN 302327Z 0100/0124 07009KT P6SM OVC060
     FM010300 VRB06KT P6SM SCT060
     FM011500 07009KT P6SM SKC=



000
FTUS45 KTFX 302327
TAFHLN
TAF
KHLN 302327Z 0100/0124 01008KT P6SM BKN040 OVC070
     FM010300 VRB06KT P6SM SCT040 BKN080
     FM011500 VRB06KT P6SM SKC=



000
FTUS45 KTFX 302327
TAFHVR
TAF
KHVR 302327Z 0100/0124 09009KT P6SM SCT070
     FM010300 VRB06KT P6SM SKC=



000
FTUS45 KTFX 302327
TAFCTB
TAF
KCTB 302327Z 0100/0124 09009KT P6SM SCT050 OVC070
     FM010300 VRB05KT P6SM SCT050
     FM011500 12004KT P6SM SKC=



000
FTUS45 KTFX 302327
TAFBZN
TAF
KBZN 302327Z 0100/0124 07009KT P6SM OVC060
     FM010300 VRB06KT P6SM SCT060
     FM011500 07009KT P6SM SKC=



000
FTUS45 KTFX 302327
TAFHVR
TAF
KHVR 302327Z 0100/0124 09009KT P6SM SCT070
     FM010300 VRB06KT P6SM SKC=



000
FTUS45 KTFX 302327
TAFCTB
TAF
KCTB 302327Z 0100/0124 09009KT P6SM SCT050 OVC070
     FM010300 VRB05KT P6SM SCT050
     FM011500 12004KT P6SM SKC=



000
FTUS45 KTFX 302327
TAFLWT
TAF
KLWT 302327Z 0100/0124 10007KT P6SM SCT050 BKN070
     FM010300 12006KT P6SM SCT070
     FM011200 12006KT P6SM SKC=



000
FTUS45 KTFX 302327
TAFGTF
TAF
KGTF 302327Z 0100/0124 08008KT P6SM SCT060 OVC090
     FM010300 VRB06KT P6SM SCT080
     FM011500 08007KT P6SM SKC=



000
FTUS45 KTFX 302327
TAFHLN
TAF
KHLN 302327Z 0100/0124 01008KT P6SM BKN040 OVC070
     FM010300 VRB06KT P6SM SCT040 BKN080
     FM011500 VRB06KT P6SM SKC=



000
FTUS45 KTFX 302327
TAFLWT
TAF
KLWT 302327Z 0100/0124 10007KT P6SM SCT050 BKN070
     FM010300 12006KT P6SM SCT070
     FM011200 12006KT P6SM SKC=



000
FTUS45 KTFX 302201 AAA
TAFBZN
TAF AMD
KBZN 302201Z 3022/0118 07009KT P6SM BKN050
     FM010100 VRB06KT P6SM SCT180=



000
FTUS45 KTFX 302158 AAA
TAFLWT
TAF AMD
KLWT 302158Z 3022/0118 10009KT P6SM OVC060
     FM010100 11008KT P6SM FEW080 SCT200=



000
FTUS45 KTFX 301726
TAFLWT
TAF
KLWT 301726Z 3018/0118 10011G18KT P6SM OVC070
     FM010100 11008KT P6SM FEW080 SCT200=



000
FTUS45 KTFX 301726
TAFHLN
TAF
KHLN 301726Z 3018/0118 35006KT P6SM SCT030 BKN060
     FM302000 31010KT P6SM VCSH SCT040 BKN080
     FM010200 VRB06KT P6SM FEW080 SCT150=



000
FTUS45 KTFX 301726
TAFGTF
TAF
KGTF 301726Z 3018/0118 VRB06KT P6SM SCT030 BKN080
     FM010200 07007KT P6SM FEW080 SCT200=



000
FTUS45 KTFX 301726
TAFCTB
TAF
KCTB 301726Z 3018/0118 VRB06KT P6SM SCT025 BKN060
      TEMPO 3018/3020 BKN025
     FM010300 12006KT P6SM SCT040 SCT200
     FM010900 VRB04KT P6SM SCT200=



000
FTUS45 KTFX 301726
TAFBZN
TAF
KBZN 301726Z 3018/0118 29006KT P6SM BKN070
     FM010100 VRB06KT P6SM SCT180=



000
FTUS45 KTFX 301726
TAFHVR
TAF
KHVR 301726Z 3018/0118 09009KT P6SM BKN070
     FM010100 09009KT P6SM FEW070 SCT200=



000
FTUS45 KTFX 301726
TAFLWT
TAF
KLWT 301726Z 3018/0118 10011G18KT P6SM OVC070
     FM010100 11008KT P6SM FEW080 SCT200=



000
FTUS45 KTFX 301726
TAFGTF
TAF
KGTF 301726Z 3018/0118 VRB06KT P6SM SCT030 BKN080
     FM010200 07007KT P6SM FEW080 SCT200=



000
FTUS45 KTFX 301726
TAFCTB
TAF
KCTB 301726Z 3018/0118 VRB06KT P6SM SCT025 BKN060
      TEMPO 3018/3020 BKN025
     FM010300 12006KT P6SM SCT040 SCT200
     FM010900 VRB04KT P6SM SCT200=



000
FTUS45 KTFX 301726
TAFHLN
TAF
KHLN 301726Z 3018/0118 35006KT P6SM SCT030 BKN060
     FM302000 31010KT P6SM VCSH SCT040 BKN080
     FM010200 VRB06KT P6SM FEW080 SCT150=



000
FTUS45 KTFX 301726
TAFBZN
TAF
KBZN 301726Z 3018/0118 29006KT P6SM BKN070
     FM010100 VRB06KT P6SM SCT180=



000
FTUS45 KTFX 301726
TAFHVR
TAF
KHVR 301726Z 3018/0118 09009KT P6SM BKN070
     FM010100 09009KT P6SM FEW070 SCT200=



000
FTUS45 KTFX 301137
TAFHVR
TAF
KHVR 301137Z 3012/0112 08010KT P6SM SCT070 BKN150
     FM010100 13006KT P6SM SCT200=



000
FTUS45 KTFX 301137
TAFCTB
TAF
KCTB 301137Z 3012/0112 VRB06KT P6SM BKN150
     FM301900 07010KT P6SM BKN150
     FM010300 12006KT P6SM SCT150 BKN200=



000
FTUS45 KTFX 301137
TAFGTF
TAF
KGTF 301137Z 3012/0112 VRB06KT P6SM OVC100
     FM301900 04010KT P6SM BKN120
     FM010100 VRB06KT P6SM SCT180=



000
FTUS45 KTFX 301137
TAFLWT
TAF
KLWT 301137Z 3012/0112 10008KT P6SM OVC070
     FM302100 10010KT P6SM SCT080
     FM010100 11006KT P6SM SCT200=



000
FTUS45 KTFX 301137
TAFBZN
TAF
KBZN 301137Z 3012/0112 VRB06KT P6SM BKN150
     FM301500 29006KT P6SM SCT100 BKN180
     FM010100 VRB06KT P6SM SCT180=



000
FTUS45 KTFX 301137
TAFHLN
TAF
KHLN 301137Z 3012/0112 26006KT P6SM BKN050
     FM301700 30006KT P6SM SCT060 BKN150
     FM302000 31010KT P6SM VCSH SCT040 BKN100
     FM010300 VRB06KT P6SM SCT120=



000
FTUS45 KTFX 301137
TAFGTF
TAF
KGTF 301137Z 3012/0112 VRB06KT P6SM OVC100
     FM301900 04010KT P6SM BKN120
     FM010100 VRB06KT P6SM SCT180=



000
FTUS45 KTFX 301137
TAFCTB
TAF
KCTB 301137Z 3012/0112 VRB06KT P6SM BKN150
     FM301900 07010KT P6SM BKN150
     FM010300 12006KT P6SM SCT150 BKN200=



000
FTUS45 KTFX 301137
TAFBZN
TAF
KBZN 301137Z 3012/0112 VRB06KT P6SM BKN150
     FM301500 29006KT P6SM SCT100 BKN180
     FM010100 VRB06KT P6SM SCT180=



000
FTUS45 KTFX 301137
TAFHLN
TAF
KHLN 301137Z 3012/0112 26006KT P6SM BKN050
     FM301700 30006KT P6SM SCT060 BKN150
     FM302000 31010KT P6SM VCSH SCT040 BKN100
     FM010300 VRB06KT P6SM SCT120=



000
FTUS45 KTFX 301137
TAFHVR
TAF
KHVR 301137Z 3012/0112 08010KT P6SM SCT070 BKN150
     FM010100 13006KT P6SM SCT200=



000
FTUS45 KTFX 301137
TAFLWT
TAF
KLWT 301137Z 3012/0112 10008KT P6SM OVC070
     FM302100 10010KT P6SM SCT080
     FM010100 11006KT P6SM SCT200=



000
FTUS45 KTFX 300534
TAFLWT
TAF
KLWT 300534Z 3006/0106 11010KT P6SM SCT030 BKN050
     FM301500 09010KT P6SM SCT040 BKN080
     FM010100 10005KT P6SM SCT060 BKN100=



000
FTUS45 KTFX 300534
TAFCTB
TAF
KCTB 300534Z 3006/0106 14006KT P6SM SCT050 BKN100
     FM301200 03004KT P6SM SCT040 BKN080
     FM010100 09007KT P6SM SCT080 BKN120=



000
FTUS45 KTFX 300534
TAFGTF
TAF
KGTF 300534Z 3006/0106 10006KT P6SM SCT060 BKN100
     FM301600 07007KT P6SM SCT050 BKN090
     FM010100 09007KT P6SM SCT080 BKN120=



000
FTUS45 KTFX 300534
TAFBZN
TAF
KBZN 300534Z 3006/0106 VRB04KT P6SM SCT050 BKN080
     FM302000 VRB05KT P6SM VCSH SCT040 BKN070
     FM010000 VRB04KT P6SM SCT060 BKN100=



000
FTUS45 KTFX 300534
TAFHVR
TAF
KHVR 300534Z 3006/0106 09011KT P6SM SCT060 BKN090
     FM302300 10010KT P6SM SCT050 BKN100=



000
FTUS45 KTFX 300534
TAFHLN
TAF
KHLN 300534Z 3006/0106 VRB05KT P6SM SCT050 BKN090
     FM302000 35007KT P6SM VCSH SCT040 BKN070
     FM010000 VRB04KT P6SM SCT060 BKN100=



000
FTUS45 KTFX 292326
TAFGTF
TAF
KGTF 292326Z 3000/3024 36006KT P6SM OVC070
     FM300600 12006KT P6SM SCT070 BKN100
     FM301100 VRB05KT P6SM VCFG SCT005 OVC035
     FM301600 05004KT P6SM BKN060=



000
FTUS45 KTFX 292326
TAFBZN
TAF
KBZN 292326Z 3000/3024 15011KT P6SM SCT050 BKN080
     FM301100 27004KT P6SM VCFG SCT015 OVC040
     FM301600 VRB06KT P6SM VCSH SCT040 BKN070=



000
FTUS45 KTFX 292326
TAFHVR
TAF
KHVR 292326Z 3000/3024 11012KT P6SM OVC060
     FM300900 12010KT P6SM SCT050 BKN100=



000
FTUS45 KTFX 292326
TAFLWT
TAF
KLWT 292326Z 3000/3024 11011KT P6SM OVC045
     FM301100 09005KT P6SM VCFG SCT005 OVC035
     FM301500 09010KT P6SM OVC070=



000
FTUS45 KTFX 292326
TAFCTB
TAF
KCTB 292326Z 3000/3024 14006KT P6SM SCT040 OVC060
     FM301200 36004KT P6SM SCT025 OVC050=



000
FTUS45 KTFX 292326
TAFHLN
TAF
KHLN 292326Z 3000/3024 VRB05KT P6SM BKN070
     FM301100 VRB04KT P6SM VCFG SCT010 BKN050
     FM301500 33005KT P6SM BKN090
     FM301800 35007KT P6SM VCSH SCT040 BKN070=



000
FTUS45 KTFX 291720
TAFGTF
TAF
KGTF 291720Z 2918/3018 18006KT P6SM SCT025 BKN060
      TEMPO 2918/2920 BKN025
     FM300600 12006KT P6SM SCT050 BKN100
     FM301100 VRB05KT P6SM VCFG SCT005 OVC015
     FM301600 05004KT P6SM BKN060=



000
FTUS45 KTFX 291720
TAFHLN
TAF
KHLN 291720Z 2918/3018 VRB05KT P6SM FEW020 BKN060
     FM301100 VRB04KT P6SM VCFG SCT005 OVC015=



000
FTUS45 KTFX 291720
TAFLWT
TAF
KLWT 291720Z 2918/3018 11011KT P6SM SCT025 BKN050
      TEMPO 2918/2920 BKN025
     FM301100 09005KT P6SM VCFG SCT005 OVC015=



000
FTUS45 KTFX 291720
TAFHVR
TAF
KHVR 291720Z 2918/3018 11011G19KT P6SM BKN070
     FM300100 12010KT P6SM SCT050 BKN100=



000
FTUS45 KTFX 291720
TAFCTB
TAF
KCTB 291720Z 2918/3018 14006KT P6SM SCT012 OVC060
      TEMPO 2918/2921 BKN010
     FM301200 36004KT P6SM SCT025 OVC050=



000
FTUS45 KTFX 291720
TAFBZN
TAF
KBZN 291720Z 2918/3018 23006KT P6SM BKN060
     FM301100 27004KT P6SM VCFG SCT015 OVC030=



000
FTUS45 KTFX 291545 AAA
TAFCTB
TAF AMD
KCTB 291545Z 2916/3012 07006KT P6SM SCT007 OVC060
      TEMPO 2916/2919 BKN007
     FM291900 13006KT P6SM SCT070 BKN150=



000
FTUS45 KTFX 291124
TAFCTB
TAF
KCTB 291124Z 2912/3012 07006KT P6SM VCFG SCT015 OVC050
      TEMPO 2912/2914 2SM BR BKN010
     FM291500 13006KT P6SM SCT015 BKN070
     FM291900 13006KT P6SM SCT070 BKN150=



000
FTUS45 KTFX 291124
TAFBZN
TAF
KBZN 291124Z 2912/3012 VRB05KT P6SM BKN060
     FM291600 23006KT P6SM SCT100 BKN150
     FM300900 25005KT P6SM SCT050 BKN100=



000
FTUS45 KTFX 291124
TAFGTF
TAF
KGTF 291124Z 2912/3012 VRB06KT P6SM OVC060
     FM291600 18006KT P6SM SCT070 BKN150
     FM300600 12006KT P6SM BKN100=



000
FTUS45 KTFX 291124
TAFHLN
TAF
KHLN 291124Z 2912/3012 VRB05KT P6SM OVC060
     FM291500 VRB05KT P6SM SCT060 BKN120
     FM300900 VRB05KT P6SM BKN050=



000
FTUS45 KTFX 291124
TAFLWT
TAF
KLWT 291124Z 2912/3012 11006KT P6SM OVC045
     FM291600 11006KT P6SM SCT050 BKN120
     FM300600 12006KT P6SM BKN035=



000
FTUS45 KTFX 291124
TAFHVR
TAF
KHVR 291124Z 2912/3012 08010KT P6SM OVC060
     FM291900 12015KT P6SM BKN100
     FM300100 13010KT P6SM BKN100=



000
FTUS45 KTFX 291016 AAA
TAFCTB
TAF AMD
KCTB 291016Z 2910/3006 VRB05KT P6SM VCFG SCT020 BKN040
      TEMPO 2910/2914 4SM BR BKN018
     FM291400 15008KT P6SM SCT015 BKN025
     FM292000 12011KT P6SM OVC040=



000
FTUS45 KTFX 290535
TAFGTF
TAF
KGTF 290535Z 2906/3006 15006KT P6SM SCT040 BKN060
      TEMPO 2911/2914 5SM BR BKN030
     FM291500 19008KT P6SM SCT020 BKN035
     FM291800 14007KT P6SM BKN080=



000
FTUS45 KTFX 290535
TAFCTB
TAF
KCTB 290535Z 2906/3006 VRB06KT P6SM VCSH SCT030 OVC045
     FM291200 VRB05KT P6SM VCFG SCT020 BKN040
     FM291400 15008KT P6SM SCT015 BKN025
     FM292000 12011KT P6SM OVC040=



000
FTUS45 KTFX 290535
TAFBZN
TAF
KBZN 290535Z 2906/3006 VRB06KT P6SM OVC070
     FM291000 VRB05KT P6SM VCFG SCT020 BKN050
      TEMPO 2911/2914 5SM BR BKN030
     FM291400 04008KT P6SM SCT040 BKN070=



000
FTUS45 KTFX 290535
TAFLWT
TAF
KLWT 290535Z 2906/3006 09011KT P6SM SCT030 BKN050
      TEMPO 2911/2914 5SM BR SCT020 BKN040
     FM291500 11010KT P6SM SCT030 OVC050=



000
FTUS45 KTFX 290535
TAFHVR
TAF
KHVR 290535Z 2906/3006 09011KT P6SM SCT040 BKN080
     FM291800 10012KT P6SM BKN060=



000
FTUS45 KTFX 290535
TAFHLN
TAF
KHLN 290535Z 2906/3006 35010KT P6SM SCT030 BKN070
     FM291100 VRB04KT P6SM VCFG SCT020 BKN040
     FM291400 02006KT P6SM SCT040 BKN090=



000
FTUS45 KTFX 290535
TAFLWT
TAF
KLWT 290535Z 2906/3006 09011KT P6SM SCT030 BKN050
      TEMPO 2911/2914 5SM BR SCT020 BKN040
     FM291500 11010KT P6SM SCT030 OVC050=



000
FTUS45 KTFX 290535
TAFBZN
TAF
KBZN 290535Z 2906/3006 VRB06KT P6SM OVC070
     FM291000 VRB05KT P6SM VCFG SCT020 BKN050
      TEMPO 2911/2914 5SM BR BKN030
     FM291400 04008KT P6SM SCT040 BKN070=



000
FTUS45 KTFX 290535
TAFHVR
TAF
KHVR 290535Z 2906/3006 09011KT P6SM SCT040 BKN080
     FM291800 10012KT P6SM BKN060=



000
FTUS45 KTFX 290535
TAFGTF
TAF
KGTF 290535Z 2906/3006 15006KT P6SM SCT040 BKN060
      TEMPO 2911/2914 5SM BR BKN030
     FM291500 19008KT P6SM SCT020 BKN035
     FM291800 14007KT P6SM BKN080=



000
FTUS45 KTFX 290535
TAFHLN
TAF
KHLN 290535Z 2906/3006 35010KT P6SM SCT030 BKN070
     FM291100 VRB04KT P6SM VCFG SCT020 BKN040
     FM291400 02006KT P6SM SCT040 BKN090=



000
FTUS45 KTFX 290535
TAFCTB
TAF
KCTB 290535Z 2906/3006 VRB06KT P6SM VCSH SCT030 OVC045
     FM291200 VRB05KT P6SM VCFG SCT020 BKN040
     FM291400 15008KT P6SM SCT015 BKN025
     FM292000 12011KT P6SM OVC040=



000
FTUS45 KTFX 282333
TAFBZN
TAF
KBZN 282333Z 2900/2924 VRB06KT P6SM OVC050
     FM290600 VRB05KT P6SM VCFG SCT010 BKN030
      TEMPO 2911/2915 2SM BR BKN010
     FM291800 04008KT P6SM SCT040 BKN070=



000
FTUS45 KTFX 282333
TAFHLN
TAF
KHLN 282333Z 2900/2924 35010KT P6SM VCSH SCT030 BKN060 OVC080
     FM290600 VRB04KT P6SM VCFG SCT010 BKN030
     FM291600 02006KT P6SM SCT040 BKN090=



000
FTUS45 KTFX 282333
TAFHVR
TAF
KHVR 282333Z 2900/2924 12013KT P6SM VCSH BKN050 OVC100
     FM290200 10008KT P6SM SCT070 BKN100
     FM290600 09011KT P6SM SCT025 OVC040
     FM291800 10012KT P6SM BKN060=



000
FTUS45 KTFX 282333
TAFCTB
TAF
KCTB 282333Z 2900/2924 VRB06KT P6SM VCSH SCT030 OVC045
     FM290500 VRB05KT P6SM VCFG SCT007 OVC012
     FM291500 15008KT P6SM SCT015 BKN025
     FM292000 12011KT P6SM OVC040=



000
FTUS45 KTFX 282333
TAFGTF
TAF
KGTF 282333Z 2900/2924 09011KT P6SM -SHRA SCT025 OVC070
     FM290400 15006KT P6SM VCFG SCT007 OVC012
      TEMPO 2911/2915 2SM BR OVC007
     FM291500 19008KT P6SM SCT020 BKN035
     FM291800 14007KT P6SM BKN080=



000
FTUS45 KTFX 282333
TAFLWT
TAF
KLWT 282333Z 2900/2924 09011KT P6SM VCSH SCT035 OVC060
     FM290200 10007KT P6SM VCSH SCT015 OVC025
     FM290600 11007KT P6SM VCFG SCT007 OVC012
     FM291500 11010KT P6SM SCT030 OVC050=



000
FTUS45 KTFX 281927 AAA
TAFCTB
TAF AMD
KCTB 281927Z 2819/2918 12011KT P6SM VCSH SCT020 OVC035
      TEMPO 2820/2824 -SHRA BKN020
     FM290100 13007KT P6SM SCT025 BKN050
     FM290500 VRB05KT P6SM VCFG SCT007 OVC012
     FM291500 15008KT P6SM SCT015 BKN025=



000
FTUS45 KTFX 281906 AAA
TAFHVR
TAF AMD
KHVR 281906Z 2819/2918 08010G18KT P6SM VCSH SCT040 BKN070
     FM290200 10008KT P6SM SCT070 BKN100
     FM290600 09011KT P6SM SCT025 OVC040=



000
FTUS45 KTFX 281732
TAFLWT
TAF
KLWT 281732Z 2818/2918 08008KT 6SM -RASN BR SCT015 OVC035
      TEMPO 2818/2820 4SM -SNRA BR BKN012
     FM282000 09011KT P6SM VCSH SCT025 OVC045
      TEMPO 2820/2824 -SHRA BKN020
     FM290200 10007KT P6SM VCSH SCT015 OVC025
     FM290600 11007KT P6SM VCFG SCT007 OVC012=



000
FTUS45 KTFX 281732
TAFHVR
TAF
KHVR 281732Z 2818/2918 03007KT P6SM SCT070 BKN120
     FM282000 09011KT P6SM VCSH SCT040 BKN070
     FM290200 10008KT P6SM SCT070 BKN100
     FM290600 09011KT P6SM SCT025 OVC040=



000
FTUS45 KTFX 281732
TAFBZN
TAF
KBZN 281732Z 2818/2918 VRB05KT P6SM VCSH SCT030 BKN050
      TEMPO 2819/2823 -SHRASN BKN025
     FM290100 VRB05KT P6SM SCT025 BKN040
     FM290600 VRB05KT P6SM VCFG SCT010 BKN030=



000
FTUS45 KTFX 281732
TAFCTB
TAF
KCTB 281732Z 2818/2918 13011KT P6SM VCSH SCT012 OVC025
      TEMPO 2818/2820 6SM -RA BR BKN010
     FM282000 12011KT P6SM VCSH SCT020 OVC035
      TEMPO 2820/2824 -SHRA BKN020
     FM290100 13007KT P6SM SCT025 BKN050
     FM290500 VRB05KT P6SM VCFG SCT007 OVC012
     FM291500 15008KT P6SM SCT015 BKN025=



000
FTUS45 KTFX 281732
TAFHLN
TAF
KHLN 281732Z 2818/2918 36010KT P6SM VCSH SCT025 OVC040
      TEMPO 2819/2823 -SHRASN BKN025
     FM290100 32007KT P6SM SCT030 BKN040
     FM290600 VRB04KT P6SM VCFG SCT010 BKN030=



000
FTUS45 KTFX 281732
TAFGTF
TAF
KGTF 281732Z 2818/2918 06011KT P6SM VCSH SCT015 OVC025
      TEMPO 2818/2820 6SM -RA BR BKN012
     FM282000 08011KT P6SM VCSH SCT020 OVC035
      TEMPO 2820/2824 -SHRA BKN020
     FM290400 15006KT P6SM VCFG SCT007 OVC012
     FM291500 19008KT P6SM SCT020 BKN035=



000
FTUS45 KTFX 281613 AAA
TAFCTB
TAF AMD
KCTB 281613Z 2816/2912 10010KT P6SM VCSH SCT012 OVC025
      TEMPO 2816/2818 4SM -RASN BR BKN010
     FM282000 11010KT P6SM VCSH SCT020 BKN040
     FM290200 12008KT P6SM BKN050=



000
FTUS45 KTFX 281612 AAB
TAFLWT
TAF AMD
KLWT 281612Z 2816/2912 08007KT 6SM -SN BR SCT015 OVC035
      TEMPO 2816/2818 4SM -SN BR BKN009
     FM281800 09011KT P6SM VCSH SCT020 BKN060
     FM290000 12007KT P6SM BKN045=



000
FTUS45 KTFX 281612 AAB
TAFLWT
TAF AMD
KLWT 281612Z 2816/2912 08007KT 6SM -SN BR SCT015 OVC035
      TEMPO 2816/2818 4SM -SN BR BKN009
     FM281800 09011KT P6SM VCSH SCT020 BKN060
     FM290000 12007KT P6SM BKN045=



000
FTUS45 KTFX 281556 AAC
TAFBZN
TAF AMD
KBZN 281556Z 2816/2912 VRB05KT P6SM VCSH SCT015 BKN040
      TEMPO 2816/2818 6SM -RASN BR BKN012
     FM281900 05008KT P6SM SCT030 BKN070
     FM290300 15006KT P6SM BKN050=



000
FTUS45 KTFX 281521 AAA
TAFGTF
TAF AMD
KGTF 281521Z 2815/2912 04010KT 6SM BR VCSH SCT010 OVC020
      TEMPO 2815/2817 4SM -SN BR BKN008
     FM281800 05008KT P6SM VCSH SCT015 BKN040
     FM290000 07008KT P6SM SCT025 BKN050=



000
FTUS45 KTFX 281430 AAB
TAFBZN
TAF AMD
KBZN 281430Z 2815/2912 04005KT 6SM -SN BR OVC005
      TEMPO 2815/2817 4SM -SN SCT005 OVC015
     FM281700 34008KT P6SM VCSH SCT015 BKN035
     FM281900 05008KT P6SM SCT030 BKN070
     FM290300 15006KT P6SM BKN050=



000
FTUS45 KTFX 281430 AAB
TAFBZN
TAF AMD
KBZN 281430Z 2815/2912 04005KT 6SM -SN BR OVC005
      TEMPO 2815/2817 4SM -SN SCT005 OVC015
     FM281700 34008KT P6SM VCSH SCT015 BKN035
     FM281900 05008KT P6SM SCT030 BKN070
     FM290300 15006KT P6SM BKN050=



000
FTUS45 KTFX 281345 AAA
TAFBZN
TAF AMD
KBZN 281345Z 2814/2912 04005KT 5SM -SN BR SCT010 OVC020
      TEMPO 2814/2816 3SM -SN BKN010
     FM281600 34008KT P6SM SCT015 BKN030
     FM281900 05008KT P6SM SCT030 BKN070
     FM290300 15006KT P6SM BKN050=



000
FTUS45 KTFX 281332 CCA
TAFHLN
TAF COR
KHLN 281332Z 2814/2912 31007KT P6SM VCSH SCT020 OVC040
      TEMPO 2814/2816 6SM -RASN BR BKN020
     FM282000 36010KT P6SM SCT020 BKN050
     FM290000 34007KT P6SM BKN040=



000
FTUS45 KTFX 281331 AAA
TAFHLN
TAF AMD
KHLN 281331Z 2814/2912 31007KT P6SM VCSH OVC018
      TEMPO 2814/2816 6SM -RASN BR SCT020 OVC040
     FM282000 36010KT P6SM SCT020 BKN050
     FM290000 34007KT P6SM BKN040=



000
FTUS45 KTFX 281330 AAA
TAFHVR
TAF AMD
KHVR 281330Z 2814/2912 03005KT P6SM VCSH SCT040 BKN080
     FM281500 06010KT P6SM SCT040 BKN070
     FM290000 12011KT P6SM BKN080
     FM290300 10007KT P6SM BKN100=



000
FTUS45 KTFX 281328 AAA
TAFLWT
TAF AMD
KLWT 281328Z 2813/2912 08007KT P6SM VCSH SCT015 OVC040
      TEMPO 2813/2816 5SM -SN BKN009
     FM281600 09011KT P6SM VCSH SCT020 BKN060
     FM290000 12007KT P6SM BKN045=



000
FTUS45 KTFX 281129
TAFGTF
TAF
KGTF 281129Z 2812/2912 04010KT 5SM -SN BR BKN003 BKN010
      TEMPO 2812/2816 2SM -SN BR
     FM281600 05008KT P6SM VCSH SCT010 BKN040
     FM290000 07008KT P6SM SCT025 BKN050=



000
FTUS45 KTFX 281129
TAFLWT
TAF
KLWT 281129Z 2812/2912 08007KT P6SM VCSH SCT010 BKN045
      TEMPO 2812/2816 3SM -SN BKN010
     FM281600 09011KT P6SM VCSH SCT015 BKN060
     FM290000 12007KT P6SM BKN045=



000
FTUS45 KTFX 281129
TAFBZN
TAF
KBZN 281129Z 2812/2912 04005KT 5SM -SN BR BKN002 BKN012
      TEMPO 2812/2815 2SM -SN
     FM281500 34008KT P6SM SCT015 BKN030
     FM281900 05008KT P6SM SCT030 BKN070
     FM290300 15006KT P6SM BKN050=



000
FTUS45 KTFX 281129
TAFCTB
TAF
KCTB 281129Z 2812/2912 10008KT 5SM -SN BR BKN004 BKN012
      TEMPO 2812/2816 2SM -SN
     FM281600 09010KT P6SM VCSH SCT012 BKN030
     FM282000 10010KT P6SM VCSH SCT020 BKN040
     FM290200 12008KT P6SM BKN050=



000
FTUS45 KTFX 281129
TAFHVR
TAF
KHVR 281129Z 2812/2912 03005KT P6SM VCSH SCT025 BKN090
      TEMPO 2812/2815 6SM -RA BKN025
     FM281500 06007KT P6SM SCT030 BKN060
     FM290000 12011KT P6SM BKN080
     FM290300 10007KT P6SM BKN100=



000
FTUS45 KTFX 281129
TAFHLN
TAF
KHLN 281129Z 2812/2912 34007KT P6SM VCSH SCT015 BKN040
      TEMPO 2812/2816 6SM -RASN BR BKN015
     FM282000 36010KT P6SM SCT020 BKN050
     FM290000 34007KT P6SM BKN040=



000
FTUS45 KTFX 281129
TAFCTB
TAF
KCTB 281129Z 2812/2912 10008KT 5SM -SN BR BKN004 BKN012
      TEMPO 2812/2816 2SM -SN
     FM281600 09010KT P6SM VCSH SCT012 BKN030
     FM282000 10010KT P6SM VCSH SCT020 BKN040
     FM290200 12008KT P6SM BKN050=



000
FTUS45 KTFX 281129
TAFBZN
TAF
KBZN 281129Z 2812/2912 04005KT 5SM -SN BR BKN002 BKN012
      TEMPO 2812/2815 2SM -SN
     FM281500 34008KT P6SM SCT015 BKN030
     FM281900 05008KT P6SM SCT030 BKN070
     FM290300 15006KT P6SM BKN050=



000
FTUS45 KTFX 281129
TAFGTF
TAF
KGTF 281129Z 2812/2912 04010KT 5SM -SN BR BKN003 BKN010
      TEMPO 2812/2816 2SM -SN BR
     FM281600 05008KT P6SM VCSH SCT010 BKN040
     FM290000 07008KT P6SM SCT025 BKN050=



000
FTUS45 KTFX 281129
TAFHLN
TAF
KHLN 281129Z 2812/2912 34007KT P6SM VCSH SCT015 BKN040
      TEMPO 2812/2816 6SM -RASN BR BKN015
     FM282000 36010KT P6SM SCT020 BKN050
     FM290000 34007KT P6SM BKN040=



000
FTUS45 KTFX 281129
TAFLWT
TAF
KLWT 281129Z 2812/2912 08007KT P6SM VCSH SCT010 BKN045
      TEMPO 2812/2816 3SM -SN BKN010
     FM281600 09011KT P6SM VCSH SCT015 BKN060
     FM290000 12007KT P6SM BKN045=



000
FTUS45 KTFX 281129
TAFHVR
TAF
KHVR 281129Z 2812/2912 03005KT P6SM VCSH SCT025 BKN090
      TEMPO 2812/2815 6SM -RA BKN025
     FM281500 06007KT P6SM SCT030 BKN060
     FM290000 12011KT P6SM BKN080
     FM290300 10007KT P6SM BKN100=



000
FTUS45 KTFX 280804 AAA
TAFHVR
TAF AMD
KHVR 280804Z 2808/2906 05005KT P6SM SCT025 BKN090
      TEMPO 2808/2812 6SM -RASN BR BKN025
     FM281500 13005KT P6SM OVC045
     FM290000 12011KT P6SM OVC060
     FM290300 16007KT P6SM OVC100=



000
FTUS45 KTFX 280708 AAA
TAFLWT
TAF AMD
KLWT 280708Z 2807/2906 10007KT 5SM -SN BR SCT025 BKN045
      TEMPO 2807/2810 2SM -SN BR BKN025
     FM281000 08010KT 6SM -SN BR BKN035
     FM281900 10012KT P6SM VCSH SCT015 BKN025
     FM290000 11008KT P6SM OVC020=



000
FTUS45 KTFX 280708 AAA
TAFLWT
TAF AMD
KLWT 280708Z 2807/2906 10007KT 5SM -SN BR SCT025 BKN045
      TEMPO 2807/2810 2SM -SN BR BKN025
     FM281000 08010KT 6SM -SN BR BKN035
     FM281900 10012KT P6SM VCSH SCT015 BKN025
     FM290000 11008KT P6SM OVC020=



    US Dept of Commerce
    National Oceanic and Atmospheric Administration
    National Weather Service
    1325 East West Highway
    Silver Spring, MD 20910
    Page Author: NWS Internet Services Team
Disclaimer
Information Quality
Credits
Glossary
Privacy Policy
Freedom of Information Act (FOIA)
About Us
Career Opportunities